createdAt,value
2019-05-21T00:02:20.965Z,12.7
2019-05-21T00:04:54.744Z,13.0
2019-05-21T00:07:28.686Z,13.6
2019-05-21T00:10:03.137Z,13.5
2019-05-21T00:12:36.976Z,10.3
2019-05-21T00:15:11.331Z,11.9
2019-05-21T00:17:45.429Z,11.1
2019-05-21T00:20:19.273Z,11.5
2019-05-21T00:22:53.435Z,14.1
2019-05-21T00:25:27.471Z,11.8
2019-05-21T00:28:01.336Z,13.4
2019-05-21T00:30:35.753Z,13.6
2019-05-21T00:33:09.746Z,14.5
2019-05-21T00:35:43.477Z,14.6
2019-05-21T00:38:17.283Z,13.3
2019-05-21T00:40:51.040Z,13.5
2019-05-21T00:43:25.265Z,16.4
2019-05-21T00:45:59.355Z,18.7
2019-05-21T00:48:33.468Z,22.4
2019-05-21T00:51:07.179Z,18.8
2019-05-21T00:53:41.304Z,20.3
2019-05-21T00:56:13.679Z,17.5
2019-05-21T00:58:46.162Z,17.6
2019-05-21T01:01:18.682Z,18.0
2019-05-21T01:03:51.115Z,19.0
2019-05-21T01:06:23.529Z,18.3
2019-05-21T01:08:55.809Z,18.9
2019-05-21T01:11:28.226Z,23.5
2019-05-21T01:14:01.082Z,19.2
2019-05-21T01:16:33.911Z,22.3
2019-05-21T01:19:06.245Z,26.1
2019-05-21T01:21:38.495Z,21.6
2019-05-21T01:24:10.859Z,18.9
2019-05-21T01:26:43.119Z,21.6
2019-05-21T01:29:15.538Z,21.3
2019-05-21T01:31:25.990Z,23.8
2019-05-21T01:34:00.333Z,24.0
2019-05-21T01:36:32.768Z,20.9
2019-05-21T01:39:05.043Z,22.6
2019-05-21T01:41:37.748Z,24.7
2019-05-21T01:44:10.048Z,25.7
2019-05-21T01:46:42.544Z,25.6
2019-05-21T01:49:15.296Z,25.7
2019-05-21T01:51:47.672Z,23.0
2019-05-21T01:54:20.120Z,26.0
2019-05-21T01:56:52.588Z,23.8
2019-05-21T01:59:24.715Z,24.9
2019-05-21T02:01:57.317Z,24.5
2019-05-21T02:04:30.184Z,25.4
2019-05-21T02:07:02.868Z,23.5
2019-05-21T02:09:34.958Z,25.7
2019-05-21T02:12:10.517Z,24.3
2019-05-21T02:14:43.285Z,23.8
2019-05-21T02:17:15.939Z,25.9
2019-05-21T02:19:48.658Z,29.4
2019-05-21T02:22:21.095Z,23.4
2019-05-21T02:24:53.390Z,28.7
2019-05-21T02:27:25.635Z,24.2
2019-05-21T02:29:58.009Z,27.7
2019-05-21T02:32:30.399Z,22.9
2019-05-21T02:35:03.359Z,25.4
2019-05-21T02:37:35.723Z,24.4
2019-05-21T02:40:08.259Z,23.1
2019-05-21T02:42:40.742Z,25.7
2019-05-21T02:45:13.131Z,25.1
2019-05-21T02:47:45.505Z,25.0
2019-05-21T02:50:18.425Z,20.8
2019-05-21T02:52:50.925Z,23.1
2019-05-21T02:55:23.303Z,20.9
2019-05-21T02:57:55.608Z,22.2
2019-05-21T03:00:27.841Z,21.4
2019-05-21T03:03:00.230Z,25.8
2019-05-21T03:05:33.013Z,21.9
2019-05-21T03:08:05.448Z,21.9
2019-05-21T03:10:37.918Z,18.1
2019-05-21T03:13:10.372Z,18.4
2019-05-21T03:15:42.654Z,23.8
2019-05-21T03:18:15.043Z,20.6
2019-05-21T03:20:47.540Z,18.6
2019-05-21T03:23:19.942Z,20.5
2019-05-21T03:25:52.222Z,18.3
2019-05-21T03:28:24.545Z,17.0
2019-05-21T03:31:26.241Z,19.7
2019-05-21T03:34:00.105Z,15.8
2019-05-21T03:36:34.481Z,16.6
2019-05-21T03:39:08.681Z,18.5
2019-05-21T03:41:42.406Z,19.2
2019-05-21T03:44:16.546Z,17.5
2019-05-21T03:46:50.378Z,20.3
2019-05-21T03:49:24.498Z,17.1
2019-05-21T03:51:58.233Z,16.5
2019-05-21T03:54:32.207Z,18.9
2019-05-21T03:57:06.006Z,20.2
2019-05-21T03:59:40.038Z,19.2
2019-05-21T04:02:13.809Z,17.3
2019-05-21T04:04:47.862Z,18.2
2019-05-21T04:07:22.162Z,20.6
2019-05-21T04:09:55.997Z,23.8
2019-05-21T04:12:29.921Z,19.5
2019-05-21T04:15:08.823Z,20.3
2019-05-21T04:17:42.628Z,20.9
2019-05-21T04:20:16.333Z,18.3
2019-05-21T04:22:50.837Z,18.7
2019-05-21T04:25:24.972Z,21.8
2019-05-21T04:27:58.819Z,20.9
2019-05-21T04:30:32.617Z,17.0
2019-05-21T04:33:06.274Z,18.0
2019-05-21T04:35:40.260Z,20.4
2019-05-21T04:38:14.549Z,22.6
2019-05-21T04:40:48.417Z,19.3
2019-05-21T04:43:22.273Z,23.4
2019-05-21T04:45:56.428Z,21.0
2019-05-21T04:48:28.834Z,22.6
2019-05-21T04:51:01.371Z,28.6
2019-05-21T04:53:33.761Z,20.8
2019-05-21T04:56:06.230Z,24.6
2019-05-21T04:58:38.710Z,22.8
2019-05-21T05:01:11.298Z,23.1
2019-05-21T05:03:43.507Z,23.7
2019-05-21T05:06:15.974Z,24.4
2019-05-21T05:08:48.769Z,22.7
2019-05-21T05:11:21.156Z,24.5
2019-05-21T05:13:53.417Z,25.7
2019-05-21T05:16:25.918Z,24.1
2019-05-21T05:18:58.047Z,27.9
2019-05-21T05:21:30.590Z,29.6
2019-05-21T05:24:03.126Z,31.0
2019-05-21T05:26:35.422Z,29.8
2019-05-21T05:29:07.889Z,29.8
2019-05-21T05:31:25.766Z,30.9
2019-05-21T05:33:59.591Z,34.5
2019-05-21T05:36:33.486Z,38.8
2019-05-21T05:39:07.666Z,35.2
2019-05-21T05:41:39.930Z,35.0
2019-05-21T05:44:12.235Z,31.3
2019-05-21T05:46:44.473Z,34.6
2019-05-21T05:49:16.932Z,38.4
2019-05-21T05:51:49.274Z,34.9
2019-05-21T05:54:21.750Z,39.6
2019-05-21T05:56:54.016Z,39.2
2019-05-21T05:59:26.428Z,35.7
2019-05-21T06:01:58.683Z,40.3
2019-05-21T06:04:31.396Z,40.0
2019-05-21T06:07:04.253Z,39.1
2019-05-21T06:09:36.896Z,42.9
2019-05-21T06:12:09.068Z,37.0
2019-05-21T06:14:41.569Z,45.1
2019-05-21T06:17:13.957Z,45.9
2019-05-21T06:19:46.424Z,40.5
2019-05-21T06:22:18.710Z,41.3
2019-05-21T06:24:51.222Z,41.3
2019-05-21T06:27:23.522Z,39.9
2019-05-21T06:29:56.143Z,44.6
2019-05-21T06:32:28.481Z,46.5
2019-05-21T06:35:00.932Z,45.3
2019-05-21T06:37:33.218Z,46.2
2019-05-21T06:40:06.036Z,59.3
2019-05-21T06:42:38.310Z,49.0
2019-05-21T06:45:10.744Z,45.5
2019-05-21T06:47:43.027Z,56.6
2019-05-21T06:50:15.478Z,55.9
2019-05-21T06:52:47.963Z,56.1
2019-05-21T06:55:20.613Z,52.8
2019-05-21T06:57:52.875Z,50.0
2019-05-21T07:00:25.244Z,45.8
2019-05-21T07:02:57.485Z,41.5
2019-05-21T07:05:29.894Z,44.0
2019-05-21T07:08:02.467Z,42.6
2019-05-21T07:10:35.067Z,43.1
2019-05-21T07:13:07.711Z,44.0
2019-05-21T07:15:40.305Z,42.3
2019-05-21T07:18:12.711Z,39.9
2019-05-21T07:20:45.021Z,44.0
2019-05-21T07:23:17.365Z,48.5
2019-05-21T07:25:49.961Z,83.8
2019-05-21T07:28:22.256Z,40.9
2019-05-21T07:31:26.369Z,40.5
2019-05-21T07:33:59.086Z,40.5
2019-05-21T07:36:31.750Z,43.2
2019-05-21T07:39:04.225Z,46.1
2019-05-21T07:41:37.030Z,56.2
2019-05-21T07:44:09.297Z,44.9
2019-05-21T07:46:41.928Z,49.6
2019-05-21T07:49:14.252Z,64.2
2019-05-21T07:51:46.814Z,44.5
2019-05-21T07:54:18.881Z,51.4
2019-05-21T07:56:51.495Z,47.4
2019-05-21T07:59:23.795Z,41.6
2019-05-21T08:01:56.239Z,42.3
2019-05-21T08:04:28.602Z,38.0
2019-05-21T08:07:00.978Z,37.2
2019-05-21T08:09:33.579Z,32.7
2019-05-21T08:12:22.699Z,35.6
2019-05-21T08:14:46.886Z,36.9
2019-05-21T08:17:19.364Z,31.7
2019-05-21T08:19:51.753Z,33.2
2019-05-21T08:22:24.403Z,29.4
2019-05-21T08:24:56.646Z,38.7
2019-05-21T08:27:29.589Z,31.3
2019-05-21T08:30:01.825Z,30.8
2019-05-21T08:32:34.198Z,29.4
2019-05-21T08:35:06.513Z,27.6
2019-05-21T08:37:39.273Z,30.3
2019-05-21T08:40:11.783Z,31.9
2019-05-21T08:42:44.137Z,37.9
2019-05-21T08:45:16.550Z,33.8
2019-05-21T08:47:49.018Z,28.4
2019-05-21T08:50:21.586Z,30.5
2019-05-21T08:52:54.092Z,23.8
2019-05-21T08:55:26.363Z,30.2
2019-05-21T08:58:06.767Z,29.1
2019-05-21T09:00:39.600Z,27.6
2019-05-21T09:03:12.036Z,22.6
2019-05-21T09:05:44.302Z,27.8
2019-05-21T09:08:16.685Z,23.1
2019-05-21T09:10:49.001Z,28.9
2019-05-21T09:13:21.702Z,27.1
2019-05-21T09:15:54.088Z,24.9
2019-05-21T09:18:26.462Z,25.8
2019-05-21T09:20:58.740Z,25.3
2019-05-21T09:23:31.178Z,25.1
2019-05-21T09:26:03.643Z,25.4
2019-05-21T09:28:36.239Z,22.9
2019-05-21T09:31:25.797Z,24.2
2019-05-21T09:33:59.672Z,25.5
2019-05-21T09:36:33.432Z,22.7
2019-05-21T09:39:07.333Z,20.8
2019-05-21T09:41:41.379Z,20.4
2019-05-21T09:44:15.771Z,19.9
2019-05-21T09:46:49.709Z,21.9
2019-05-21T09:49:23.816Z,18.5
2019-05-21T09:51:57.734Z,18.6
2019-05-21T09:54:32.057Z,16.9
2019-05-21T09:57:04.361Z,16.8
2019-05-21T09:59:37.229Z,17.1
2019-05-21T10:02:09.569Z,19.2
2019-05-21T10:04:42.007Z,19.6
2019-05-21T10:07:14.458Z,24.6
2019-05-21T10:09:47.036Z,19.8
2019-05-21T10:12:19.730Z,14.3
2019-05-21T10:14:52.339Z,12.9
2019-05-21T10:17:24.732Z,13.3
2019-05-21T10:19:58.886Z,16.1
2019-05-21T10:22:31.546Z,15.3
2019-05-21T10:25:03.880Z,13.5
2019-05-21T10:27:36.223Z,16.6
2019-05-21T10:30:09.404Z,15.2
2019-05-21T10:32:41.941Z,13.2
2019-05-21T10:35:14.629Z,17.4
2019-05-21T10:37:54.792Z,13.6
2019-05-21T10:40:27.983Z,15.8
2019-05-21T10:43:00.303Z,15.3
2019-05-21T10:45:32.887Z,15.3
2019-05-21T10:48:05.267Z,15.1
2019-05-21T10:50:37.910Z,14.2
2019-05-21T10:53:10.171Z,16.2
2019-05-21T10:55:42.648Z,15.2
2019-05-21T10:58:14.830Z,12.8
2019-05-21T11:00:47.039Z,11.8
2019-05-21T11:03:19.387Z,18.9
2019-05-21T11:06:07.362Z,16.6
2019-05-21T11:08:33.250Z,18.3
2019-05-21T11:11:05.923Z,19.4
2019-05-21T11:13:38.112Z,21.8
2019-05-21T11:16:11.331Z,21.7
2019-05-21T11:18:43.889Z,18.9
2019-05-21T11:21:16.426Z,20.2
2019-05-21T11:23:49.010Z,17.4
2019-05-21T11:26:21.979Z,7.7
2019-05-21T11:28:54.223Z,11.0
2019-05-21T11:31:26.434Z,12.7
2019-05-21T11:34:00.331Z,7.1
2019-05-21T11:36:34.179Z,13.5
2019-05-21T11:39:08.114Z,11.8
2019-05-21T11:41:41.929Z,13.0
2019-05-21T11:44:15.650Z,10.3
2019-05-21T11:46:49.528Z,10.0
2019-05-21T11:49:23.610Z,14.3
2019-05-21T11:51:57.783Z,13.6
2019-05-21T11:54:31.469Z,13.1
2019-05-21T11:57:05.610Z,14.9
2019-05-21T11:59:37.977Z,14.3
2019-05-21T12:02:10.781Z,14.3
2019-05-21T12:04:43.460Z,14.4
2019-05-21T12:07:15.818Z,15.8
2019-05-21T12:09:48.230Z,12.6
2019-05-21T12:12:20.921Z,13.5
2019-05-21T12:14:53.175Z,12.8
2019-05-21T12:17:26.018Z,11.7
2019-05-21T12:19:58.237Z,15.3
2019-05-21T12:22:30.794Z,11.4
2019-05-21T12:25:03.115Z,12.2
2019-05-21T12:27:35.674Z,13.7
2019-05-21T12:30:07.921Z,17.6
2019-05-21T12:32:40.320Z,18.3
2019-05-21T12:35:12.602Z,16.8
2019-05-21T12:37:44.971Z,20.5
2019-05-21T12:40:17.199Z,17.6
2019-05-21T12:42:49.665Z,19.0
2019-05-21T12:45:21.994Z,17.4
2019-05-21T12:47:54.783Z,17.4
2019-05-21T12:50:27.080Z,16.5
2019-05-21T12:52:59.669Z,19.9
2019-05-21T12:55:31.923Z,18.7
2019-05-21T12:58:04.351Z,19.3
2019-05-21T13:00:36.820Z,15.3
2019-05-21T13:03:09.409Z,18.3
2019-05-21T13:05:41.821Z,18.3
2019-05-21T13:08:14.384Z,15.1
2019-05-21T13:10:46.667Z,13.9
2019-05-21T13:13:19.574Z,15.3
2019-05-21T13:15:51.525Z,14.4
2019-05-21T13:18:23.677Z,15.2
2019-05-21T13:20:55.424Z,15.5
2019-05-21T13:23:27.544Z,15.2
2019-05-21T13:31:24.941Z,14.1
2019-05-21T13:33:59.460Z,17.3
2019-05-21T13:36:33.358Z,16.3
2019-05-21T13:39:07.247Z,18.3
2019-05-21T13:41:41.220Z,17.3
2019-05-21T13:44:15.212Z,16.3
2019-05-21T13:46:49.073Z,14.5
2019-05-21T13:49:23.500Z,15.3
2019-05-21T13:51:57.362Z,15.6
2019-05-21T13:54:31.817Z,16.0
2019-05-21T13:57:05.823Z,17.4
2019-05-21T13:59:39.805Z,13.6
2019-05-21T14:02:13.809Z,14.0
2019-05-21T14:04:46.440Z,14.8
2019-05-21T14:07:18.809Z,17.2
2019-05-21T14:10:12.369Z,17.7
2019-05-21T14:12:32.255Z,17.5
2019-05-21T14:15:04.663Z,17.4
2019-05-21T14:17:37.006Z,16.1
2019-05-21T14:20:09.779Z,14.7
2019-05-21T14:22:42.219Z,16.5
2019-05-21T14:25:14.768Z,15.9
2019-05-21T14:27:47.055Z,15.8
2019-05-21T14:30:19.352Z,20.0
2019-05-21T14:32:52.027Z,16.6
2019-05-21T14:35:24.663Z,19.2
2019-05-21T14:37:57.141Z,16.6
2019-05-21T14:40:31.497Z,17.8
2019-05-21T14:43:05.131Z,18.6
2019-05-21T14:45:37.534Z,16.4
2019-05-21T14:48:09.797Z,17.4
2019-05-21T14:50:42.322Z,17.5
2019-05-21T14:53:14.841Z,15.6
2019-05-21T14:55:47.371Z,15.2
2019-05-21T14:58:19.764Z,14.6
2019-05-21T15:00:52.286Z,12.7
2019-05-21T15:03:25.635Z,13.3
2019-05-21T15:06:02.250Z,15.6
2019-05-21T15:08:34.523Z,15.2
2019-05-21T15:11:07.035Z,16.9
2019-05-21T15:13:39.320Z,14.8
2019-05-21T15:16:11.564Z,15.3
2019-05-21T15:18:43.968Z,15.5
2019-05-21T15:21:16.800Z,16.1
2019-05-21T15:23:49.379Z,15.9
2019-05-21T15:26:22.676Z,14.3
2019-05-21T15:28:55.146Z,15.5
2019-05-21T15:31:25.817Z,17.7
2019-05-21T15:34:00.126Z,16.1
2019-05-21T15:36:34.347Z,15.1
2019-05-21T15:39:08.259Z,18.8
2019-05-21T15:41:42.153Z,18.9
2019-05-21T15:44:16.140Z,20.0
2019-05-21T15:46:50.501Z,21.4
2019-05-21T15:49:35.384Z,22.0
2019-05-21T15:52:08.575Z,22.5
2019-05-21T15:54:42.541Z,25.5
2019-05-21T15:57:16.525Z,25.8
2019-05-21T15:59:50.339Z,24.6
2019-05-21T16:02:24.224Z,25.3
2019-05-21T16:04:58.039Z,25.9
2019-05-21T16:07:32.511Z,26.1
2019-05-21T16:10:06.177Z,24.0
2019-05-21T16:12:39.956Z,25.7
2019-05-21T16:15:13.838Z,24.9
2019-05-21T16:17:47.806Z,24.9
2019-05-21T16:20:21.664Z,26.4
2019-05-21T16:22:55.593Z,25.3
2019-05-21T16:25:29.662Z,25.7
2019-05-21T16:28:03.884Z,27.4
2019-05-21T16:30:37.864Z,24.6
2019-05-21T16:33:12.024Z,26.2
2019-05-21T16:35:44.330Z,26.5
2019-05-21T16:38:17.071Z,27.8
2019-05-21T16:40:49.300Z,28.2
2019-05-21T16:43:21.766Z,27.2
2019-05-21T16:45:54.276Z,28.5
2019-05-21T16:48:26.836Z,29.2
2019-05-21T16:50:59.215Z,28.4
2019-05-21T16:53:31.529Z,27.3
2019-05-21T16:56:03.720Z,29.3
2019-05-21T16:58:35.990Z,27.6
2019-05-21T17:01:08.289Z,27.8
2019-05-21T17:03:40.773Z,29.0
2019-05-21T17:06:13.185Z,28.9
2019-05-21T17:08:46.905Z,30.7
2019-05-21T17:11:20.254Z,29.5
2019-05-21T17:13:55.057Z,28.7
2019-05-21T17:16:27.341Z,29.3
2019-05-21T17:18:59.791Z,30.5
2019-05-21T17:21:32.348Z,30.9
2019-05-21T17:24:05.208Z,29.7
2019-05-21T17:26:37.821Z,30.8
2019-05-21T17:29:10.324Z,29.4
2019-05-21T17:31:25.634Z,30.8
2019-05-21T17:33:59.366Z,28.9
2019-05-21T17:36:33.300Z,28.5
2019-05-21T17:39:07.554Z,28.7
2019-05-21T17:41:39.783Z,28.2
2019-05-21T17:44:12.213Z,27.5
2019-05-21T17:46:44.426Z,27.8
2019-05-21T17:49:16.664Z,27.1
2019-05-21T17:51:49.150Z,25.7
2019-05-21T17:54:21.970Z,25.7
2019-05-21T17:56:54.335Z,26.2
2019-05-21T17:59:26.630Z,25.1
2019-05-21T18:01:59.439Z,27.0
2019-05-21T18:04:31.808Z,27.4
2019-05-21T18:07:04.258Z,27.3
2019-05-21T18:09:37.022Z,27.7
2019-05-21T18:12:09.559Z,30.8
2019-05-21T18:14:41.884Z,29.2
2019-05-21T18:17:14.562Z,26.3
2019-05-21T18:19:47.583Z,27.5
2019-05-21T18:22:20.058Z,28.9
2019-05-21T18:24:52.489Z,28.8
2019-05-21T18:27:24.856Z,30.9
2019-05-21T18:29:57.224Z,29.4
2019-05-21T18:32:30.138Z,29.8
2019-05-21T18:35:02.513Z,31.5
2019-05-21T18:37:35.297Z,34.6
2019-05-21T18:40:08.061Z,33.2
2019-05-21T18:42:40.885Z,33.0
2019-05-21T18:45:13.511Z,34.4
2019-05-21T18:47:46.228Z,31.1
2019-05-21T18:50:18.574Z,31.9
2019-05-21T18:52:59.977Z,32.7
2019-05-21T18:55:32.393Z,37.5
2019-05-21T18:58:05.314Z,35.3
2019-05-21T19:00:38.351Z,34.4
2019-05-21T19:03:11.000Z,36.6
2019-05-21T19:05:43.343Z,41.1
2019-05-21T19:08:15.881Z,37.5
2019-05-21T19:10:48.079Z,35.0
2019-05-21T19:13:20.534Z,37.7
2019-05-21T19:15:52.896Z,41.4
2019-05-21T19:18:27.420Z,38.9
2019-05-21T19:20:59.836Z,39.4
2019-05-21T19:23:32.932Z,40.3
2019-05-21T19:26:05.974Z,38.1
2019-05-21T19:28:38.465Z,38.8
2019-05-21T19:31:26.183Z,37.4
2019-05-21T19:33:59.923Z,38.6
2019-05-21T19:36:34.349Z,36.1
2019-05-21T19:39:08.535Z,37.0
2019-05-21T19:41:42.784Z,36.8
2019-05-21T19:44:16.780Z,39.0
2019-05-21T19:46:50.618Z,37.4
2019-05-21T19:49:24.496Z,36.7
2019-05-21T19:51:58.380Z,39.4
2019-05-21T19:54:32.304Z,35.9
2019-05-21T19:57:06.565Z,37.4
2019-05-21T19:59:40.468Z,37.8
2019-05-21T20:02:14.276Z,39.9
2019-05-21T20:04:48.255Z,40.3
2019-05-21T20:07:22.325Z,43.7
2019-05-21T20:09:56.173Z,40.5
2019-05-21T20:12:30.413Z,37.5
2019-05-21T20:15:02.999Z,39.7
2019-05-21T20:17:35.432Z,42.5
2019-05-21T20:20:08.271Z,42.2
2019-05-21T20:22:40.719Z,41.3
2019-05-21T20:25:13.681Z,38.2
2019-05-21T20:27:46.978Z,40.4
2019-05-21T20:30:19.469Z,38.5
2019-05-21T20:32:52.266Z,39.8
2019-05-21T20:35:25.131Z,37.4
2019-05-21T20:37:57.421Z,39.9
2019-05-21T20:40:29.881Z,41.6
2019-05-21T20:43:02.743Z,40.2
2019-05-21T20:45:35.446Z,41.0
2019-05-21T20:48:07.777Z,41.0
2019-05-21T20:50:47.784Z,40.8
2019-05-21T20:53:21.865Z,43.8
2019-05-21T20:55:56.113Z,41.7
2019-05-21T20:58:31.324Z,41.7
2019-05-21T21:01:05.971Z,42.9
2019-05-21T21:03:38.080Z,41.5
2019-05-21T21:06:10.443Z,44.4
2019-05-21T21:08:42.905Z,42.7
2019-05-21T21:11:15.414Z,42.4
2019-05-21T21:13:48.210Z,50.3
2019-05-21T21:16:20.650Z,46.5
2019-05-21T21:18:53.004Z,48.0
2019-05-21T21:21:25.530Z,50.0
2019-05-21T21:23:57.899Z,43.9
2019-05-21T21:26:30.491Z,45.9
2019-05-21T21:29:03.261Z,43.5
2019-05-21T21:31:25.479Z,42.6
2019-05-21T21:33:59.299Z,45.2
2019-05-21T21:36:34.016Z,44.9
2019-05-21T21:39:08.006Z,55.1
2019-05-21T21:41:42.042Z,46.0
2019-05-21T21:44:16.437Z,49.8
2019-05-21T21:46:58.388Z,49.4
2019-05-21T21:49:32.404Z,49.1
2019-05-21T21:52:06.147Z,51.1
2019-05-21T21:54:39.946Z,49.6
2019-05-21T21:57:21.815Z,53.1
2019-05-21T21:59:56.140Z,58.8
2019-05-21T22:02:29.936Z,54.2
2019-05-21T22:05:03.983Z,52.3
2019-05-21T22:07:36.441Z,60.8
2019-05-21T22:10:08.870Z,59.9
2019-05-21T22:12:41.161Z,56.4
2019-05-21T22:15:13.703Z,57.7
2019-05-21T22:17:45.895Z,61.5
2019-05-21T22:20:18.372Z,57.9
2019-05-21T22:22:50.579Z,58.2
2019-05-21T22:25:23.072Z,57.7
2019-05-21T22:27:55.474Z,64.1
2019-05-21T22:30:28.451Z,58.5
2019-05-21T22:33:00.751Z,59.5
2019-05-21T22:35:33.232Z,60.7
2019-05-21T22:38:05.545Z,65.1
2019-05-21T22:40:38.025Z,63.2
2019-05-21T22:43:10.403Z,68.0
2019-05-21T22:45:43.502Z,59.9
2019-05-21T22:48:15.874Z,58.8
2019-05-21T22:50:48.293Z,59.4
2019-05-21T22:53:20.482Z,59.4
2019-05-21T22:55:52.898Z,64.7
2019-05-21T22:58:25.029Z,58.6
2019-05-21T23:00:57.842Z,61.3
2019-05-21T23:03:30.198Z,59.3
2019-05-21T23:06:02.554Z,68.4
2019-05-21T23:08:34.702Z,75.9
2019-05-21T23:11:07.138Z,66.8
2019-05-21T23:13:39.381Z,61.6
2019-05-21T23:16:11.889Z,68.7
2019-05-21T23:18:44.122Z,66.5
2019-05-21T23:21:16.630Z,73.9
2019-05-21T23:23:49.023Z,64.3
2019-05-21T23:26:21.615Z,62.8
2019-05-21T23:28:53.924Z,62.7
2019-05-21T23:31:26.172Z,65.1
2019-05-21T23:34:00.186Z,62.2
2019-05-21T23:36:32.560Z,68.8
2019-05-21T23:39:04.838Z,62.6
2019-05-21T23:41:37.224Z,59.2
2019-05-21T23:44:09.597Z,65.0
2019-05-21T23:46:42.180Z,61.9
2019-05-21T23:49:14.404Z,64.8
2019-05-21T23:51:46.837Z,63.5
2019-05-21T23:54:19.369Z,65.2
2019-05-21T23:56:52.033Z,64.8
2019-05-21T23:59:24.378Z,69.0
